Brooklyn, Indiana
Current Conditions -  °F | °C
As of 5:54 PM on Friday 31 Oct 2014 (Local Time) from KIND Reporting Station
Light Snow Light Snow  
Wind Chill: 26°   Ceiling: 1500
Heat Index: 35°   Visibility: 5mi
Dew Point: 33°   Wind: 15mph
Humidity: 92%   Direction: 320°NW
Pressure: 30.01"   Gusts: 28mph
Location:  39.54°N, 86.37°W
Report Text: KIND 312154Z 32013G24KT 5SM -RASN BR SCT009 OVC015 02/01 A3001 RMK AO2 PK WND 31029/2103 SNB01 SLP167 P0007 T00170006
Loading
Personal Weather Stations






























Interactive Weather Map
Tropical Storm Tracking
New forecast layout! Learn more

10-Day Weather Forecast

Advertisements
Track Severe Weather on mobile